sensor_id;sensor_type;location;lat;lon;timestamp;P1;durP1;ratioP1;P2;durP2;ratioP2
20245;SDS011;10281;54.406;18.556;2023-02-11T00:00:19;19.13;;;12.03;;
20245;SDS011;10281;54.406;18.556;2023-02-11T00:02:47;19.70;;;11.37;;
20245;SDS011;10281;54.406;18.556;2023-02-11T00:05:14;20.27;;;11.77;;
20245;SDS011;10281;54.406;18.556;2023-02-11T00:07:40;25.60;;;12.70;;
20245;SDS011;10281;54.406;18.556;2023-02-11T00:10:07;20.97;;;12.43;;
20245;SDS011;10281;54.406;18.556;2023-02-11T00:12:35;17.97;;;12.13;;
20245;SDS011;10281;54.406;18.556;2023-02-11T00:15:03;25.53;;;13.03;;
20245;SDS011;10281;54.406;18.556;2023-02-11T00:17:31;28.93;;;13.00;;
20245;SDS011;10281;54.406;18.556;2023-02-11T00:19:58;24.73;;;13.23;;
20245;SDS011;10281;54.406;18.556;2023-02-11T00:22:25;20.77;;;12.63;;
20245;SDS011;10281;54.406;18.556;2023-02-11T00:24:51;26.37;;;13.97;;
20245;SDS011;10281;54.406;18.556;2023-02-11T00:27:18;22.97;;;13.83;;
20245;SDS011;10281;54.406;18.556;2023-02-11T00:29:45;25.83;;;14.90;;
20245;SDS011;10281;54.406;18.556;2023-02-11T00:32:11;23.63;;;14.30;;
20245;SDS011;10281;54.406;18.556;2023-02-11T00:34:38;20.80;;;13.83;;
20245;SDS011;10281;54.406;18.556;2023-02-11T00:37:05;23.13;;;14.50;;
20245;SDS011;10281;54.406;18.556;2023-02-11T00:39:32;25.40;;;13.83;;
20245;SDS011;10281;54.406;18.556;2023-02-11T00:41:59;27.17;;;15.03;;
20245;SDS011;10281;54.406;18.556;2023-02-11T00:44:25;31.67;;;15.27;;
20245;SDS011;10281;54.406;18.556;2023-02-11T00:46:52;22.87;;;14.63;;
20245;SDS011;10281;54.406;18.556;2023-02-11T00:49:18;24.47;;;15.47;;
20245;SDS011;10281;54.406;18.556;2023-02-11T00:51:45;27.97;;;15.53;;
20245;SDS011;10281;54.406;18.556;2023-02-11T00:54:12;28.97;;;15.20;;
20245;SDS011;10281;54.406;18.556;2023-02-11T00:56:39;26.60;;;16.07;;
20245;SDS011;10281;54.406;18.556;2023-02-11T00:59:05;25.03;;;15.60;;
20245;SDS011;10281;54.406;18.556;2023-02-11T01:01:32;30.73;;;16.70;;
20245;SDS011;10281;54.406;18.556;2023-02-11T01:03:59;25.77;;;16.57;;
20245;SDS011;10281;54.406;18.556;2023-02-11T01:06:25;30.43;;;16.57;;
20245;SDS011;10281;54.406;18.556;2023-02-11T01:08:52;29.27;;;17.30;;
20245;SDS011;10281;54.406;18.556;2023-02-11T01:11:19;31.57;;;17.67;;
20245;SDS011;10281;54.406;18.556;2023-02-11T01:13:47;36.97;;;17.27;;
20245;SDS011;10281;54.406;18.556;2023-02-11T01:16:15;27.77;;;18.67;;
20245;SDS011;10281;54.406;18.556;2023-02-11T01:18:42;32.17;;;18.60;;
20245;SDS011;10281;54.406;18.556;2023-02-11T01:21:09;34.03;;;17.63;;
20245;SDS011;10281;54.406;18.556;2023-02-11T01:23:36;28.63;;;19.10;;
20245;SDS011;10281;54.406;18.556;2023-02-11T01:26:03;30.47;;;18.77;;
20245;SDS011;10281;54.406;18.556;2023-02-11T01:28:30;32.47;;;19.30;;
20245;SDS011;10281;54.406;18.556;2023-02-11T01:30:58;34.77;;;19.90;;
20245;SDS011;10281;54.406;18.556;2023-02-11T01:33:25;29.50;;;19.60;;
20245;SDS011;10281;54.406;18.556;2023-02-11T01:35:52;32.63;;;19.63;;
20245;SDS011;10281;54.406;18.556;2023-02-11T01:38:20;31.70;;;19.40;;
20245;SDS011;10281;54.406;18.556;2023-02-11T01:40:51;29.50;;;20.37;;
20245;SDS011;10281;54.406;18.556;2023-02-11T01:43:19;35.07;;;20.37;;
20245;SDS011;10281;54.406;18.556;2023-02-11T01:45:52;30.23;;;19.73;;
20245;SDS011;10281;54.406;18.556;2023-02-11T01:48:33;34.77;;;21.13;;
20245;SDS011;10281;54.406;18.556;2023-02-11T01:51:12;33.80;;;20.67;;
20245;SDS011;10281;54.406;18.556;2023-02-11T01:53:41;33.47;;;20.80;;
20245;SDS011;10281;54.406;18.556;2023-02-11T01:56:15;32.10;;;21.43;;
20245;SDS011;10281;54.406;18.556;2023-02-11T01:58:49;32.80;;;20.50;;
20245;SDS011;10281;54.406;18.556;2023-02-11T02:01:19;30.67;;;20.47;;
20245;SDS011;10281;54.406;18.556;2023-02-11T02:03:48;33.43;;;21.50;;
20245;SDS011;10281;54.406;18.556;2023-02-11T02:06:21;29.03;;;18.97;;
20245;SDS011;10281;54.406;18.556;2023-02-11T02:08:53;39.03;;;20.33;;
20245;SDS011;10281;54.406;18.556;2023-02-11T02:11:22;35.13;;;20.67;;
20245;SDS011;10281;54.406;18.556;2023-02-11T02:13:50;33.40;;;21.67;;
20245;SDS011;10281;54.406;18.556;2023-02-11T02:16:18;30.83;;;20.37;;
20245;SDS011;10281;54.406;18.556;2023-02-11T02:18:55;30.53;;;20.03;;
20245;SDS011;10281;54.406;18.556;2023-02-11T02:27:11;32.93;;;21.33;;
20245;SDS011;10281;54.406;18.556;2023-02-11T02:32:38;32.20;;;21.30;;
20245;SDS011;10281;54.406;18.556;2023-02-11T02:35:23;36.63;;;22.17;;
20245;SDS011;10281;54.406;18.556;2023-02-11T02:38:07;31.70;;;21.33;;
20245;SDS011;10281;54.406;18.556;2023-02-11T02:40:44;35.57;;;20.53;;
20245;SDS011;10281;54.406;18.556;2023-02-11T02:43:13;35.97;;;21.43;;
20245;SDS011;10281;54.406;18.556;2023-02-11T02:45:41;30.90;;;20.27;;
20245;SDS011;10281;54.406;18.556;2023-02-11T02:48:24;34.67;;;20.67;;
20245;SDS011;10281;54.406;18.556;2023-02-11T02:50:57;30.77;;;21.13;;
20245;SDS011;10281;54.406;18.556;2023-02-11T02:53:44;33.30;;;20.30;;
20245;SDS011;10281;54.406;18.556;2023-02-11T02:56:22;29.53;;;19.00;;
20245;SDS011;10281;54.406;18.556;2023-02-11T02:58:59;33.27;;;20.37;;
20245;SDS011;10281;54.406;18.556;2023-02-11T03:01:29;34.90;;;20.77;;
20245;SDS011;10281;54.406;18.556;2023-02-11T03:04:10;30.50;;;19.83;;
20245;SDS011;10281;54.406;18.556;2023-02-11T03:06:59;36.10;;;20.80;;
20245;SDS011;10281;54.406;18.556;2023-02-11T03:09:30;29.97;;;18.73;;
20245;SDS011;10281;54.406;18.556;2023-02-11T03:12:00;28.10;;;18.97;;
20245;SDS011;10281;54.406;18.556;2023-02-11T03:14:28;29.63;;;19.00;;
20245;SDS011;10281;54.406;18.556;2023-02-11T03:16:57;26.20;;;18.10;;
20245;SDS011;10281;54.406;18.556;2023-02-11T03:19:28;29.37;;;19.67;;
20245;SDS011;10281;54.406;18.556;2023-02-11T03:21:58;25.63;;;17.83;;
20245;SDS011;10281;54.406;18.556;2023-02-11T03:24:28;25.77;;;17.03;;
20245;SDS011;10281;54.406;18.556;2023-02-11T03:27:00;27.17;;;18.37;;
20245;SDS011;10281;54.406;18.556;2023-02-11T03:29:42;26.27;;;17.23;;
20245;SDS011;10281;54.406;18.556;2023-02-11T03:32:25;23.10;;;15.80;;
20245;SDS011;10281;54.406;18.556;2023-02-11T03:34:55;23.63;;;16.83;;
20245;SDS011;10281;54.406;18.556;2023-02-11T03:37:32;25.03;;;17.20;;
20245;SDS011;10281;54.406;18.556;2023-02-11T03:40:07;23.03;;;15.73;;
20245;SDS011;10281;54.406;18.556;2023-02-11T03:42:39;23.00;;;16.03;;
20245;SDS011;10281;54.406;18.556;2023-02-11T03:45:08;24.00;;;15.83;;
20245;SDS011;10281;54.406;18.556;2023-02-11T03:47:38;23.87;;;14.90;;
20245;SDS011;10281;54.406;18.556;2023-02-11T03:50:09;20.40;;;15.20;;
20245;SDS011;10281;54.406;18.556;2023-02-11T03:52:37;21.43;;;15.00;;
20245;SDS011;10281;54.406;18.556;2023-02-11T03:55:07;22.23;;;15.43;;
20245;SDS011;10281;54.406;18.556;2023-02-11T03:57:36;22.13;;;14.30;;
20245;SDS011;10281;54.406;18.556;2023-02-11T04:00:04;21.47;;;14.43;;
20245;SDS011;10281;54.406;18.556;2023-02-11T04:02:33;21.37;;;14.87;;
20245;SDS011;10281;54.406;18.556;2023-02-11T04:05:01;19.20;;;13.93;;
20245;SDS011;10281;54.406;18.556;2023-02-11T04:07:29;18.57;;;13.40;;
20245;SDS011;10281;54.406;18.556;2023-02-11T04:09:55;21.20;;;14.87;;
20245;SDS011;10281;54.406;18.556;2023-02-11T04:12:22;19.80;;;13.23;;
20245;SDS011;10281;54.406;18.556;2023-02-11T04:14:48;18.87;;;13.37;;
20245;SDS011;10281;54.406;18.556;2023-02-11T04:17:15;18.93;;;14.00;;
20245;SDS011;10281;54.406;18.556;2023-02-11T04:19:42;19.00;;;12.87;;
20245;SDS011;10281;54.406;18.556;2023-02-11T04:22:09;16.77;;;13.03;;
20245;SDS011;10281;54.406;18.556;2023-02-11T04:24:35;20.57;;;13.60;;
20245;SDS011;10281;54.406;18.556;2023-02-11T04:27:02;17.17;;;12.40;;
20245;SDS011;10281;54.406;18.556;2023-02-11T04:29:29;18.10;;;11.80;;
20245;SDS011;10281;54.406;18.556;2023-02-11T04:31:56;16.87;;;11.93;;
20245;SDS011;10281;54.406;18.556;2023-02-11T04:34:23;16.90;;;11.97;;
20245;SDS011;10281;54.406;18.556;2023-02-11T04:36:49;17.07;;;11.27;;
20245;SDS011;10281;54.406;18.556;2023-02-11T04:39:16;18.57;;;11.30;;
20245;SDS011;10281;54.406;18.556;2023-02-11T04:41:43;16.20;;;11.30;;
20245;SDS011;10281;54.406;18.556;2023-02-11T04:44:10;16.57;;;10.60;;
20245;SDS011;10281;54.406;18.556;2023-02-11T04:46:36;14.13;;;10.33;;
20245;SDS011;10281;54.406;18.556;2023-02-11T04:49:03;15.43;;;10.60;;
20245;SDS011;10281;54.406;18.556;2023-02-11T04:51:30;17.20;;;10.60;;
20245;SDS011;10281;54.406;18.556;2023-02-11T04:53:57;14.23;;;10.10;;
20245;SDS011;10281;54.406;18.556;2023-02-11T04:56:24;13.67;;;9.73;;
20245;SDS011;10281;54.406;18.556;2023-02-11T04:58:50;13.30;;;9.83;;
20245;SDS011;10281;54.406;18.556;2023-02-11T05:01:17;13.10;;;9.37;;
20245;SDS011;10281;54.406;18.556;2023-02-11T05:03:44;12.43;;;9.13;;
20245;SDS011;10281;54.406;18.556;2023-02-11T05:06:11;13.37;;;9.83;;
20245;SDS011;10281;54.406;18.556;2023-02-11T05:08:37;13.53;;;9.27;;
20245;SDS011;10281;54.406;18.556;2023-02-11T05:11:04;13.20;;;9.53;;
20245;SDS011;10281;54.406;18.556;2023-02-11T05:13:32;16.93;;;9.37;;
20245;SDS011;10281;54.406;18.556;2023-02-11T05:15:59;14.80;;;9.03;;
20245;SDS011;10281;54.406;18.556;2023-02-11T05:18:26;14.63;;;9.10;;
20245;SDS011;10281;54.406;18.556;2023-02-11T05:20:52;12.07;;;8.83;;
20245;SDS011;10281;54.406;18.556;2023-02-11T05:23:19;13.93;;;10.33;;
20245;SDS011;10281;54.406;18.556;2023-02-11T05:25:46;13.83;;;9.30;;
20245;SDS011;10281;54.406;18.556;2023-02-11T05:28:12;13.20;;;9.23;;
20245;SDS011;10281;54.406;18.556;2023-02-11T05:30:39;11.93;;;9.33;;
20245;SDS011;10281;54.406;18.556;2023-02-11T05:33:05;11.67;;;8.33;;
20245;SDS011;10281;54.406;18.556;2023-02-11T05:35:32;12.80;;;9.30;;
20245;SDS011;10281;54.406;18.556;2023-02-11T05:37:59;14.07;;;9.30;;
20245;SDS011;10281;54.406;18.556;2023-02-11T05:40:25;12.73;;;8.90;;
20245;SDS011;10281;54.406;18.556;2023-02-11T05:42:52;11.07;;;8.43;;
20245;SDS011;10281;54.406;18.556;2023-02-11T05:45:19;10.90;;;8.00;;
20245;SDS011;10281;54.406;18.556;2023-02-11T05:47:45;11.77;;;8.30;;
20245;SDS011;10281;54.406;18.556;2023-02-11T05:50:12;14.07;;;8.00;;
20245;SDS011;10281;54.406;18.556;2023-02-11T05:52:38;9.87;;;7.30;;
20245;SDS011;10281;54.406;18.556;2023-02-11T05:55:05;9.50;;;7.40;;
20245;SDS011;10281;54.406;18.556;2023-02-11T05:57:32;10.30;;;7.67;;
20245;SDS011;10281;54.406;18.556;2023-02-11T05:59:59;11.33;;;7.83;;
20245;SDS011;10281;54.406;18.556;2023-02-11T06:02:26;10.53;;;7.73;;
20245;SDS011;10281;54.406;18.556;2023-02-11T06:04:53;10.37;;;7.53;;
20245;SDS011;10281;54.406;18.556;2023-02-11T06:07:19;9.87;;;7.63;;
20245;SDS011;10281;54.406;18.556;2023-02-11T06:09:46;9.10;;;7.43;;
20245;SDS011;10281;54.406;18.556;2023-02-11T06:12:12;9.77;;;6.90;;
20245;SDS011;10281;54.406;18.556;2023-02-11T06:14:39;9.63;;;7.30;;
20245;SDS011;10281;54.406;18.556;2023-02-11T06:17:06;9.20;;;6.67;;
20245;SDS011;10281;54.406;18.556;2023-02-11T06:19:32;10.37;;;6.97;;
20245;SDS011;10281;54.406;18.556;2023-02-11T06:21:59;9.43;;;7.03;;
20245;SDS011;10281;54.406;18.556;2023-02-11T06:24:26;9.33;;;7.33;;
20245;SDS011;10281;54.406;18.556;2023-02-11T06:26:53;11.00;;;7.80;;
20245;SDS011;10281;54.406;18.556;2023-02-11T06:29:19;12.13;;;7.13;;
20245;SDS011;10281;54.406;18.556;2023-02-11T06:31:46;10.07;;;6.63;;
20245;SDS011;10281;54.406;18.556;2023-02-11T06:34:12;9.43;;;7.07;;
20245;SDS011;10281;54.406;18.556;2023-02-11T06:36:39;10.43;;;7.27;;
20245;SDS011;10281;54.406;18.556;2023-02-11T06:39:06;10.87;;;6.93;;
20245;SDS011;10281;54.406;18.556;2023-02-11T06:41:33;11.43;;;7.30;;
20245;SDS011;10281;54.406;18.556;2023-02-11T06:43:59;11.17;;;7.40;;
20245;SDS011;10281;54.406;18.556;2023-02-11T06:46:26;11.03;;;7.77;;
20245;SDS011;10281;54.406;18.556;2023-02-11T06:48:53;10.80;;;7.27;;
20245;SDS011;10281;54.406;18.556;2023-02-11T06:51:19;9.90;;;6.60;;
20245;SDS011;10281;54.406;18.556;2023-02-11T06:53:46;8.77;;;6.60;;
20245;SDS011;10281;54.406;18.556;2023-02-11T06:56:15;10.63;;;7.17;;
20245;SDS011;10281;54.406;18.556;2023-02-11T06:58:45;10.27;;;7.20;;
20245;SDS011;10281;54.406;18.556;2023-02-11T07:01:14;7.93;;;5.97;;
20245;SDS011;10281;54.406;18.556;2023-02-11T07:03:42;8.47;;;6.67;;
20245;SDS011;10281;54.406;18.556;2023-02-11T07:06:13;8.70;;;6.57;;
20245;SDS011;10281;54.406;18.556;2023-02-11T07:08:43;8.73;;;6.23;;
20245;SDS011;10281;54.406;18.556;2023-02-11T07:11:12;11.33;;;6.23;;
20245;SDS011;10281;54.406;18.556;2023-02-11T07:13:43;8.73;;;6.23;;
20245;SDS011;10281;54.406;18.556;2023-02-11T07:16:11;9.20;;;6.00;;
20245;SDS011;10281;54.406;18.556;2023-02-11T07:18:40;10.83;;;6.13;;
20245;SDS011;10281;54.406;18.556;2023-02-11T07:21:08;7.80;;;5.93;;
20245;SDS011;10281;54.406;18.556;2023-02-11T07:23:36;8.40;;;5.97;;
20245;SDS011;10281;54.406;18.556;2023-02-11T07:26:03;8.87;;;5.90;;
20245;SDS011;10281;54.406;18.556;2023-02-11T07:28:32;7.73;;;5.77;;
20245;SDS011;10281;54.406;18.556;2023-02-11T07:31:08;9.27;;;6.10;;
20245;SDS011;10281;54.406;18.556;2023-02-11T07:33:37;8.23;;;5.40;;
20245;SDS011;10281;54.406;18.556;2023-02-11T07:36:04;7.97;;;5.43;;
20245;SDS011;10281;54.406;18.556;2023-02-11T07:38:32;9.57;;;6.37;;
20245;SDS011;10281;54.406;18.556;2023-02-11T07:41:02;7.37;;;5.07;;
20245;SDS011;10281;54.406;18.556;2023-02-11T07:43:30;8.37;;;5.43;;
20245;SDS011;10281;54.406;18.556;2023-02-11T07:45:58;8.90;;;5.20;;
20245;SDS011;10281;54.406;18.556;2023-02-11T07:48:25;7.47;;;5.53;;
20245;SDS011;10281;54.406;18.556;2023-02-11T07:50:51;7.00;;;5.13;;
20245;SDS011;10281;54.406;18.556;2023-02-11T07:53:18;9.20;;;5.10;;
20245;SDS011;10281;54.406;18.556;2023-02-11T07:55:44;7.77;;;5.00;;
20245;SDS011;10281;54.406;18.556;2023-02-11T07:58:11;6.27;;;4.60;;
20245;SDS011;10281;54.406;18.556;2023-02-11T08:00:38;9.77;;;5.27;;
20245;SDS011;10281;54.406;18.556;2023-02-11T08:03:04;6.20;;;5.00;;
20245;SDS011;10281;54.406;18.556;2023-02-11T08:05:33;6.90;;;5.07;;
20245;SDS011;10281;54.406;18.556;2023-02-11T08:08:03;6.43;;;4.67;;
20245;SDS011;10281;54.406;18.556;2023-02-11T08:10:29;4.87;;;4.07;;
20245;SDS011;10281;54.406;18.556;2023-02-11T08:12:56;5.37;;;3.60;;
20245;SDS011;10281;54.406;18.556;2023-02-11T08:15:22;5.40;;;3.97;;
20245;SDS011;10281;54.406;18.556;2023-02-11T08:17:49;5.67;;;4.03;;
20245;SDS011;10281;54.406;18.556;2023-02-11T08:20:16;4.97;;;3.63;;
20245;SDS011;10281;54.406;18.556;2023-02-11T08:22:42;6.00;;;3.80;;
20245;SDS011;10281;54.406;18.556;2023-02-11T08:25:09;5.97;;;4.17;;
20245;SDS011;10281;54.406;18.556;2023-02-11T08:27:35;7.27;;;6.57;;
20245;SDS011;10281;54.406;18.556;2023-02-11T08:30:02;10.47;;;8.60;;
20245;SDS011;10281;54.406;18.556;2023-02-11T08:32:30;9.40;;;6.13;;
20245;SDS011;10281;54.406;18.556;2023-02-11T08:34:56;4.27;;;3.50;;
20245;SDS011;10281;54.406;18.556;2023-02-11T08:37:23;5.63;;;3.23;;
20245;SDS011;10281;54.406;18.556;2023-02-11T08:39:49;3.87;;;3.10;;
20245;SDS011;10281;54.406;18.556;2023-02-11T08:42:16;4.57;;;3.53;;
20245;SDS011;10281;54.406;18.556;2023-02-11T08:44:42;3.30;;;2.90;;
20245;SDS011;10281;54.406;18.556;2023-02-11T08:47:09;3.77;;;2.50;;
20245;SDS011;10281;54.406;18.556;2023-02-11T08:49:36;3.70;;;2.80;;
20245;SDS011;10281;54.406;18.556;2023-02-11T08:52:03;4.63;;;3.10;;
20245;SDS011;10281;54.406;18.556;2023-02-11T08:54:29;2.80;;;2.23;;
20245;SDS011;10281;54.406;18.556;2023-02-11T08:56:56;3.23;;;2.23;;
20245;SDS011;10281;54.406;18.556;2023-02-11T08:59:23;3.30;;;2.83;;
20245;SDS011;10281;54.406;18.556;2023-02-11T09:01:50;3.70;;;3.03;;
20245;SDS011;10281;54.406;18.556;2023-02-11T09:04:16;4.03;;;3.00;;
20245;SDS011;10281;54.406;18.556;2023-02-11T09:06:43;3.90;;;2.60;;
20245;SDS011;10281;54.406;18.556;2023-02-11T09:09:11;5.60;;;2.80;;
20245;SDS011;10281;54.406;18.556;2023-02-11T09:11:40;3.43;;;2.30;;
20245;SDS011;10281;54.406;18.556;2023-02-11T09:14:10;4.13;;;2.73;;
20245;SDS011;10281;54.406;18.556;2023-02-11T09:16:44;42.67;;;21.30;;
20245;SDS011;10281;54.406;18.556;2023-02-11T09:19:12;5.13;;;3.17;;
20245;SDS011;10281;54.406;18.556;2023-02-11T09:21:38;3.53;;;2.30;;
20245;SDS011;10281;54.406;18.556;2023-02-11T09:24:05;4.57;;;2.60;;
20245;SDS011;10281;54.406;18.556;2023-02-11T09:26:32;4.07;;;2.67;;
20245;SDS011;10281;54.406;18.556;2023-02-11T09:29:02;3.37;;;2.60;;
20245;SDS011;10281;54.406;18.556;2023-02-11T09:31:30;3.17;;;2.20;;
20245;SDS011;10281;54.406;18.556;2023-02-11T09:34:00;3.53;;;2.43;;
20245;SDS011;10281;54.406;18.556;2023-02-11T09:36:30;4.10;;;2.30;;
20245;SDS011;10281;54.406;18.556;2023-02-11T09:38:58;3.50;;;1.97;;
20245;SDS011;10281;54.406;18.556;2023-02-11T09:41:32;3.50;;;2.43;;
20245;SDS011;10281;54.406;18.556;2023-02-11T09:43:59;2.67;;;1.80;;
20245;SDS011;10281;54.406;18.556;2023-02-11T09:46:30;4.33;;;2.50;;
20245;SDS011;10281;54.406;18.556;2023-02-11T09:48:59;4.00;;;2.03;;
20245;SDS011;10281;54.406;18.556;2023-02-11T09:51:34;2.97;;;2.30;;
20245;SDS011;10281;54.406;18.556;2023-02-11T09:54:15;5.33;;;3.00;;
20245;SDS011;10281;54.406;18.556;2023-02-11T09:56:43;6.23;;;2.97;;
20245;SDS011;10281;54.406;18.556;2023-02-11T09:59:14;5.63;;;3.20;;
20245;SDS011;10281;54.406;18.556;2023-02-11T10:01:46;4.57;;;3.13;;
20245;SDS011;10281;54.406;18.556;2023-02-11T10:06:52;4.23;;;2.30;;
20245;SDS011;10281;54.406;18.556;2023-02-11T10:12:08;2.50;;;2.00;;
20245;SDS011;10281;54.406;18.556;2023-02-11T10:14:44;5.83;;;2.67;;
20245;SDS011;10281;54.406;18.556;2023-02-11T10:17:14;5.57;;;2.53;;
20245;SDS011;10281;54.406;18.556;2023-02-11T10:19:53;4.13;;;2.40;;
20245;SDS011;10281;54.406;18.556;2023-02-11T10:22:27;4.93;;;2.67;;
20245;SDS011;10281;54.406;18.556;2023-02-11T10:24:56;4.13;;;2.37;;
20245;SDS011;10281;54.406;18.556;2023-02-11T10:27:27;7.00;;;2.70;;
20245;SDS011;10281;54.406;18.556;2023-02-11T10:29:59;5.77;;;3.00;;
20245;SDS011;10281;54.406;18.556;2023-02-11T10:32:38;6.73;;;2.90;;
20245;SDS011;10281;54.406;18.556;2023-02-11T10:35:14;9.67;;;3.83;;
20245;SDS011;10281;54.406;18.556;2023-02-11T10:37:43;12.80;;;3.23;;
20245;SDS011;10281;54.406;18.556;2023-02-11T10:40:12;10.63;;;4.03;;
20245;SDS011;10281;54.406;18.556;2023-02-11T10:42:43;11.17;;;3.80;;
20245;SDS011;10281;54.406;18.556;2023-02-11T10:45:18;13.47;;;5.73;;
20245;SDS011;10281;54.406;18.556;2023-02-11T10:48:02;15.47;;;6.33;;
20245;SDS011;10281;54.406;18.556;2023-02-11T10:50:32;13.37;;;5.27;;
20245;SDS011;10281;54.406;18.556;2023-02-11T10:53:11;17.13;;;4.53;;
20245;SDS011;10281;54.406;18.556;2023-02-11T10:55:50;15.27;;;5.10;;
20245;SDS011;10281;54.406;18.556;2023-02-11T10:58:27;10.43;;;4.07;;
20245;SDS011;10281;54.406;18.556;2023-02-11T11:00:57;13.90;;;4.17;;
20245;SDS011;10281;54.406;18.556;2023-02-11T11:03:25;13.20;;;4.20;;
20245;SDS011;10281;54.406;18.556;2023-02-11T11:05:57;11.00;;;3.80;;
20245;SDS011;10281;54.406;18.556;2023-02-11T11:08:57;11.67;;;3.53;;
20245;SDS011;10281;54.406;18.556;2023-02-11T11:11:12;16.97;;;4.60;;
20245;SDS011;10281;54.406;18.556;2023-02-11T11:14:17;21.37;;;4.60;;
20245;SDS011;10281;54.406;18.556;2023-02-11T11:16:28;17.67;;;4.50;;
20245;SDS011;10281;54.406;18.556;2023-02-11T11:19:30;16.60;;;4.63;;
20245;SDS011;10281;54.406;18.556;2023-02-11T11:21:52;19.00;;;4.43;;
20245;SDS011;10281;54.406;18.556;2023-02-11T11:24:22;15.87;;;4.03;;
20245;SDS011;10281;54.406;18.556;2023-02-11T11:26:55;20.20;;;5.40;;
20245;SDS011;10281;54.406;18.556;2023-02-11T11:29:30;13.87;;;3.53;;
20245;SDS011;10281;54.406;18.556;2023-02-11T11:31:58;14.17;;;3.60;;
20245;SDS011;10281;54.406;18.556;2023-02-11T11:34:30;13.53;;;3.80;;
20245;SDS011;10281;54.406;18.556;2023-02-11T11:37:01;11.70;;;4.10;;
20245;SDS011;10281;54.406;18.556;2023-02-11T11:39:31;13.50;;;4.03;;
20245;SDS011;10281;54.406;18.556;2023-02-11T11:42:01;17.77;;;5.10;;
20245;SDS011;10281;54.406;18.556;2023-02-11T11:44:33;16.53;;;4.30;;
20245;SDS011;10281;54.406;18.556;2023-02-11T11:47:06;16.20;;;3.93;;
20245;SDS011;10281;54.406;18.556;2023-02-11T11:52:24;12.97;;;3.30;;
20245;SDS011;10281;54.406;18.556;2023-02-11T11:55:12;17.60;;;4.40;;
20245;SDS011;10281;54.406;18.556;2023-02-11T11:57:43;13.33;;;3.90;;
20245;SDS011;10281;54.406;18.556;2023-02-11T12:00:13;13.87;;;3.77;;
20245;SDS011;10281;54.406;18.556;2023-02-11T12:02:51;14.70;;;4.30;;
20245;SDS011;10281;54.406;18.556;2023-02-11T12:08:16;16.70;;;4.63;;
20245;SDS011;10281;54.406;18.556;2023-02-11T12:10:51;14.27;;;3.83;;
20245;SDS011;10281;54.406;18.556;2023-02-11T12:13:26;12.77;;;3.40;;
20245;SDS011;10281;54.406;18.556;2023-02-11T12:16:01;11.17;;;4.23;;
20245;SDS011;10281;54.406;18.556;2023-02-11T12:21:44;15.27;;;4.10;;
20245;SDS011;10281;54.406;18.556;2023-02-11T12:24:21;13.17;;;3.47;;
20245;SDS011;10281;54.406;18.556;2023-02-11T12:27:00;15.43;;;4.50;;
20245;SDS011;10281;54.406;18.556;2023-02-11T12:29:38;17.50;;;5.33;;
20245;SDS011;10281;54.406;18.556;2023-02-11T12:32:11;12.87;;;4.10;;
20245;SDS011;10281;54.406;18.556;2023-02-11T12:35:03;16.07;;;4.13;;
20245;SDS011;10281;54.406;18.556;2023-02-11T12:40:42;16.37;;;4.70;;
20245;SDS011;10281;54.406;18.556;2023-02-11T12:46:07;17.20;;;4.13;;
20245;SDS011;10281;54.406;18.556;2023-02-11T12:51:32;13.77;;;4.60;;
20245;SDS011;10281;54.406;18.556;2023-02-11T12:54:13;13.13;;;3.97;;
20245;SDS011;10281;54.406;18.556;2023-02-11T12:56:59;17.47;;;5.43;;
20245;SDS011;10281;54.406;18.556;2023-02-11T12:59:33;15.60;;;4.27;;
20245;SDS011;10281;54.406;18.556;2023-02-11T13:02:13;15.37;;;4.17;;
20245;SDS011;10281;54.406;18.556;2023-02-11T13:04:44;15.93;;;5.27;;
20245;SDS011;10281;54.406;18.556;2023-02-11T13:07:32;17.50;;;3.80;;
20245;SDS011;10281;54.406;18.556;2023-02-11T13:10:02;13.83;;;4.07;;
20245;SDS011;10281;54.406;18.556;2023-02-11T13:12:46;14.57;;;3.70;;
20245;SDS011;10281;54.406;18.556;2023-02-11T13:15:20;17.67;;;4.03;;
20245;SDS011;10281;54.406;18.556;2023-02-11T13:17:53;18.43;;;4.13;;
20245;SDS011;10281;54.406;18.556;2023-02-11T13:20:26;14.70;;;4.07;;
20245;SDS011;10281;54.406;18.556;2023-02-11T13:23:02;15.53;;;4.90;;
20245;SDS011;10281;54.406;18.556;2023-02-11T13:26:07;15.97;;;4.23;;
20245;SDS011;10281;54.406;18.556;2023-02-11T13:28:28;18.97;;;5.03;;
20245;SDS011;10281;54.406;18.556;2023-02-11T13:31:01;17.77;;;4.20;;
20245;SDS011;10281;54.406;18.556;2023-02-11T13:33:31;19.53;;;5.23;;
20245;SDS011;10281;54.406;18.556;2023-02-11T13:36:10;19.87;;;4.93;;
20245;SDS011;10281;54.406;18.556;2023-02-11T13:38:39;15.23;;;4.30;;
20245;SDS011;10281;54.406;18.556;2023-02-11T13:41:16;14.10;;;3.87;;
20245;SDS011;10281;54.406;18.556;2023-02-11T13:46:24;16.00;;;4.90;;
20245;SDS011;10281;54.406;18.556;2023-02-11T13:48:53;15.53;;;5.50;;
20245;SDS011;10281;54.406;18.556;2023-02-11T13:51:39;16.23;;;4.27;;
20245;SDS011;10281;54.406;18.556;2023-02-11T13:54:07;17.57;;;4.00;;
20245;SDS011;10281;54.406;18.556;2023-02-11T13:56:39;15.57;;;3.87;;
20245;SDS011;10281;54.406;18.556;2023-02-11T14:02:04;22.60;;;4.80;;
20245;SDS011;10281;54.406;18.556;2023-02-11T14:10:47;18.00;;;6.20;;
20245;SDS011;10281;54.406;18.556;2023-02-11T14:18:36;20.80;;;6.57;;
20245;SDS011;10281;54.406;18.556;2023-02-11T14:21:09;13.17;;;4.30;;
20245;SDS011;10281;54.406;18.556;2023-02-11T14:23:39;15.27;;;4.07;;
20245;SDS011;10281;54.406;18.556;2023-02-11T14:28:51;16.70;;;5.20;;
20245;SDS011;10281;54.406;18.556;2023-02-11T14:31:22;17.37;;;5.10;;
20245;SDS011;10281;54.406;18.556;2023-02-11T14:33:59;19.30;;;5.87;;
20245;SDS011;10281;54.406;18.556;2023-02-11T14:39:07;14.13;;;4.37;;
20245;SDS011;10281;54.406;18.556;2023-02-11T14:41:51;20.27;;;6.90;;
20245;SDS011;10281;54.406;18.556;2023-02-11T14:44:20;14.27;;;4.70;;
20245;SDS011;10281;54.406;18.556;2023-02-11T14:46:49;19.33;;;4.97;;
20245;SDS011;10281;54.406;18.556;2023-02-11T14:49:23;19.97;;;6.67;;
20245;SDS011;10281;54.406;18.556;2023-02-11T14:51:55;22.47;;;6.03;;
20245;SDS011;10281;54.406;18.556;2023-02-11T14:54:25;15.77;;;4.77;;
20245;SDS011;10281;54.406;18.556;2023-02-11T14:59:31;13.83;;;5.27;;
20245;SDS011;10281;54.406;18.556;2023-02-11T15:01:58;17.87;;;5.07;;
20245;SDS011;10281;54.406;18.556;2023-02-11T15:04:25;13.80;;;3.37;;
20245;SDS011;10281;54.406;18.556;2023-02-11T15:06:54;14.20;;;3.70;;
20245;SDS011;10281;54.406;18.556;2023-02-11T15:09:27;15.30;;;4.33;;
20245;SDS011;10281;54.406;18.556;2023-02-11T15:11:59;14.67;;;4.17;;
20245;SDS011;10281;54.406;18.556;2023-02-11T15:14:28;16.90;;;5.13;;
20245;SDS011;10281;54.406;18.556;2023-02-11T15:16:58;15.53;;;4.53;;
20245;SDS011;10281;54.406;18.556;2023-02-11T15:19:29;14.43;;;4.13;;
20245;SDS011;10281;54.406;18.556;2023-02-11T15:22:01;14.33;;;4.47;;
20245;SDS011;10281;54.406;18.556;2023-02-11T15:24:31;15.17;;;4.87;;
20245;SDS011;10281;54.406;18.556;2023-02-11T15:27:03;14.30;;;3.20;;
20245;SDS011;10281;54.406;18.556;2023-02-11T15:29:42;15.30;;;5.30;;
20245;SDS011;10281;54.406;18.556;2023-02-11T15:32:15;17.90;;;5.07;;
20245;SDS011;10281;54.406;18.556;2023-02-11T15:34:43;14.63;;;4.60;;